createdAt,value
2022-12-18T00:01:59.798Z,48.58
2022-12-18T00:04:49.362Z,53.00
2022-12-18T00:07:36.939Z,53.50
2022-12-18T00:10:23.966Z,53.05
2022-12-18T00:13:10.542Z,52.72
2022-12-18T00:16:06.243Z,53.95
2022-12-18T00:18:57.710Z,54.35
2022-12-18T00:21:45.298Z,59.10
2022-12-18T00:24:32.081Z,57.50
2022-12-18T00:27:18.492Z,54.30
2022-12-18T00:30:06.339Z,63.10
2022-12-18T00:32:53.406Z,64.30
2022-12-18T00:35:39.953Z,57.33
2022-12-18T00:38:26.985Z,50.13
2022-12-18T00:41:35.336Z,52.88
2022-12-18T00:44:23.647Z,53.45
2022-12-18T00:47:10.730Z,48.88
2022-12-18T00:49:57.571Z,55.67
2022-12-18T00:52:44.087Z,56.08
2022-12-18T00:55:30.980Z,53.80
2022-12-18T00:58:18.054Z,57.47
2022-12-18T01:01:07.731Z,48.30
2022-12-18T01:03:54.721Z,50.85
2022-12-18T01:06:44.966Z,55.42
2022-12-18T01:09:31.293Z,51.72
2022-12-18T01:12:18.411Z,52.38
2022-12-18T01:15:09.230Z,58.08
2022-12-18T01:17:57.392Z,59.75
2022-12-18T01:20:46.529Z,57.08
2022-12-18T01:23:33.087Z,49.72
2022-12-18T01:26:21.046Z,53.00
2022-12-18T01:29:07.688Z,58.20
2022-12-18T01:31:56.660Z,55.83
2022-12-18T01:34:43.372Z,50.38
2022-12-18T01:37:29.613Z,48.38
2022-12-18T01:40:16.438Z,52.70
2022-12-18T01:43:02.756Z,54.50
2022-12-18T01:45:49.900Z,51.85
2022-12-18T01:48:36.505Z,52.65
2022-12-18T01:51:24.581Z,56.97
2022-12-18T01:54:10.830Z,53.58
2022-12-18T01:56:57.671Z,55.60
2022-12-18T01:59:46.881Z,56.42
2022-12-18T02:02:33.952Z,51.42
2022-12-18T02:06:06.760Z,47.22
2022-12-18T02:09:01.490Z,53.92
2022-12-18T02:12:07.564Z,45.30
2022-12-18T02:14:57.585Z,51.72
2022-12-18T02:17:51.951Z,55.13
2022-12-18T02:20:49.201Z,52.63
2022-12-18T02:24:04.592Z,55.45
2022-12-18T02:26:52.358Z,44.35
2022-12-18T02:29:58.568Z,46.67
2022-12-18T02:32:52.016Z,53.90
2022-12-18T02:35:40.191Z,51.67
2022-12-18T02:38:28.733Z,56.35
2022-12-18T02:41:18.154Z,55.60
2022-12-18T02:44:11.118Z,54.08
2022-12-18T02:46:57.908Z,59.55
2022-12-18T02:49:59.950Z,66.75
2022-12-18T02:53:02.790Z,60.38
2022-12-18T02:56:01.507Z,58.20
2022-12-18T02:59:03.739Z,64.20
2022-12-18T03:02:10.802Z,61.78
2022-12-18T03:05:13.196Z,61.28
2022-12-18T03:08:10.429Z,59.72
2022-12-18T03:11:03.769Z,65.40
2022-12-18T03:13:57.737Z,62.53
2022-12-18T03:16:46.033Z,66.90
2022-12-18T03:19:34.302Z,66.10
2022-12-18T03:22:24.994Z,69.68
2022-12-18T03:25:15.339Z,58.88
2022-12-18T03:28:03.677Z,63.40
2022-12-18T03:30:57.966Z,64.63
2022-12-18T03:33:48.657Z,60.60
2022-12-18T03:36:35.936Z,61.78
2022-12-18T03:39:22.682Z,71.40
2022-12-18T03:42:22.030Z,81.22
2022-12-18T03:45:20.632Z,66.18
2022-12-18T03:48:08.924Z,75.38
2022-12-18T03:51:07.316Z,67.28
2022-12-18T03:54:01.826Z,83.80
2022-12-18T03:56:58.696Z,87.63
2022-12-18T03:59:47.527Z,68.10
2022-12-18T04:02:38.530Z,70.88
2022-12-18T04:08:15.413Z,67.07
2022-12-18T04:11:09.619Z,67.18
2022-12-18T04:14:02.722Z,69.65
2022-12-18T04:16:53.001Z,70.03
2022-12-18T04:19:44.427Z,72.20
2022-12-18T04:22:31.373Z,70.75
2022-12-18T04:25:24.685Z,75.97
2022-12-18T04:28:25.214Z,83.55
2022-12-18T04:31:12.116Z,65.93
2022-12-18T04:33:59.303Z,69.45
2022-12-18T04:36:46.435Z,68.60
2022-12-18T04:39:33.948Z,74.78
2022-12-18T04:42:25.836Z,82.65
2022-12-18T04:45:12.366Z,87.10
2022-12-18T04:47:59.912Z,78.00
2022-12-18T04:50:48.125Z,65.18
2022-12-18T04:53:34.924Z,83.07
2022-12-18T04:56:21.621Z,64.32
2022-12-18T04:59:07.867Z,70.50
2022-12-18T05:01:55.031Z,71.53
2022-12-18T05:04:41.908Z,66.03
2022-12-18T05:07:28.975Z,71.13
2022-12-18T05:10:15.335Z,67.15
2022-12-18T05:13:04.882Z,68.85
2022-12-18T05:15:54.944Z,65.65
2022-12-18T05:18:42.312Z,75.83
2022-12-18T05:21:28.510Z,74.72
2022-12-18T05:24:15.561Z,76.68
2022-12-18T05:27:02.880Z,68.47
2022-12-18T05:29:49.963Z,73.60
2022-12-18T05:32:36.252Z,81.65
2022-12-18T05:35:22.912Z,75.53
2022-12-18T05:38:09.472Z,81.72
2022-12-18T05:40:56.974Z,86.35
2022-12-18T05:43:44.015Z,97.22
2022-12-18T05:46:30.989Z,76.60
2022-12-18T05:49:17.703Z,146.45
2022-12-18T05:52:04.823Z,77.78
2022-12-18T05:54:50.971Z,73.53
2022-12-18T05:57:40.693Z,71.50
2022-12-18T06:00:27.027Z,66.50
2022-12-18T06:03:14.638Z,72.35
2022-12-18T06:06:01.185Z,58.97
2022-12-18T06:08:48.062Z,69.93
2022-12-18T06:11:34.504Z,60.05
2022-12-18T06:14:22.069Z,62.72
2022-12-18T06:17:08.867Z,58.25
2022-12-18T06:19:55.274Z,58.45
2022-12-18T06:22:41.532Z,60.42
2022-12-18T06:25:28.375Z,62.72
2022-12-18T06:28:14.907Z,67.72
2022-12-18T06:31:07.043Z,61.33
2022-12-18T06:33:56.035Z,62.17
2022-12-18T06:36:42.703Z,61.30
2022-12-18T06:39:31.126Z,51.70
2022-12-18T06:42:18.035Z,47.15
2022-12-18T06:45:04.912Z,56.22
2022-12-18T06:47:52.076Z,53.80
2022-12-18T06:50:38.429Z,56.00
2022-12-18T06:53:25.114Z,65.28
2022-12-18T06:56:11.823Z,60.28
2022-12-18T06:58:58.848Z,65.15
2022-12-18T07:01:45.554Z,111.35
2022-12-18T07:04:33.168Z,245.40
2022-12-18T07:07:19.933Z,354.35
2022-12-18T07:10:07.138Z,197.55
2022-12-18T07:12:53.456Z,386.05
2022-12-18T07:15:40.329Z,397.05
2022-12-18T07:18:27.144Z,201.77
2022-12-18T07:21:16.221Z,195.38
2022-12-18T07:24:03.754Z,211.35
2022-12-18T07:26:50.408Z,67.00
2022-12-18T07:29:36.552Z,71.85
2022-12-18T07:32:25.817Z,67.13
2022-12-18T07:35:12.228Z,65.68
2022-12-18T07:37:59.150Z,71.90
2022-12-18T07:40:45.614Z,72.93
2022-12-18T07:43:32.381Z,70.20
2022-12-18T07:46:23.490Z,73.53
2022-12-18T07:49:28.491Z,105.82
2022-12-18T07:52:28.200Z,92.15
2022-12-18T07:55:26.017Z,82.65
2022-12-18T07:58:40.390Z,97.00
2022-12-18T08:01:33.340Z,74.63
2022-12-18T08:04:28.160Z,82.50
2022-12-18T08:07:21.356Z,102.85
2022-12-18T08:10:15.639Z,84.80
2022-12-18T08:13:16.949Z,95.78
2022-12-18T08:16:10.703Z,86.28
2022-12-18T08:19:08.899Z,91.82
2022-12-18T08:22:04.175Z,79.25
2022-12-18T08:25:04.942Z,74.45
2022-12-18T08:27:51.954Z,75.55
2022-12-18T08:30:39.311Z,108.65
2022-12-18T08:33:25.800Z,106.45
2022-12-18T08:36:12.608Z,372.13
2022-12-18T08:38:58.990Z,120.18
2022-12-18T08:42:10.044Z,132.27
2022-12-18T08:44:57.059Z,173.98
2022-12-18T08:47:43.284Z,167.27
2022-12-18T08:50:30.148Z,109.07
2022-12-18T08:53:16.555Z,100.65
2022-12-18T08:56:03.184Z,94.00
2022-12-18T08:58:55.969Z,191.18
2022-12-18T09:01:42.661Z,141.75
2022-12-18T09:04:29.423Z,127.10
2022-12-18T09:07:16.838Z,103.32
2022-12-18T09:10:04.054Z,87.43
2022-12-18T09:12:50.384Z,87.40
2022-12-18T09:15:49.591Z,93.38
2022-12-18T09:18:35.914Z,120.38
2022-12-18T09:21:22.910Z,147.15
2022-12-18T09:24:13.559Z,108.15
2022-12-18T09:29:46.772Z,109.32
2022-12-18T09:32:36.328Z,122.90
2022-12-18T09:35:23.415Z,111.72
2022-12-18T09:38:17.754Z,117.07
2022-12-18T09:41:16.610Z,108.18
2022-12-18T09:44:15.750Z,106.05
2022-12-18T09:47:16.562Z,180.68
2022-12-18T09:50:07.082Z,143.40
2022-12-18T09:52:56.104Z,121.97
2022-12-18T09:55:44.632Z,444.58
2022-12-18T09:58:47.969Z,281.90
2022-12-18T10:01:41.751Z,439.35
2022-12-18T10:04:32.113Z,218.55
2022-12-18T10:07:34.475Z,142.05
2022-12-18T10:10:39.586Z,204.70
2022-12-18T10:13:35.110Z,199.13
2022-12-18T10:16:37.980Z,368.80
2022-12-18T10:19:50.326Z,155.48
2022-12-18T10:22:48.588Z,176.75
2022-12-18T10:25:50.706Z,176.18
2022-12-18T10:28:42.312Z,183.50
2022-12-18T10:31:29.451Z,252.55
2022-12-18T10:34:16.259Z,247.35
2022-12-18T10:37:08.077Z,167.05
2022-12-18T10:40:22.340Z,136.77
2022-12-18T10:43:15.681Z,183.77
2022-12-18T10:46:11.408Z,146.93
2022-12-18T10:48:59.249Z,148.70
2022-12-18T10:51:45.836Z,182.60
2022-12-18T10:54:35.314Z,162.00
2022-12-18T10:57:27.899Z,188.95
2022-12-18T11:00:25.239Z,115.75
2022-12-18T11:03:40.632Z,143.25
2022-12-18T11:06:28.374Z,216.25
2022-12-18T11:09:23.191Z,163.07
2022-12-18T11:12:21.242Z,155.85
2022-12-18T11:15:08.003Z,142.95
2022-12-18T11:17:55.122Z,136.27
2022-12-18T11:20:41.786Z,160.68
2022-12-18T11:23:28.751Z,178.38
2022-12-18T11:26:15.594Z,198.52
2022-12-18T11:29:12.125Z,90.68
2022-12-18T11:32:14.022Z,121.43
2022-12-18T11:35:05.858Z,131.43
2022-12-18T11:40:45.122Z,103.22
2022-12-18T11:43:42.502Z,141.18
2022-12-18T11:46:36.409Z,168.52
2022-12-18T11:49:30.156Z,156.73
2022-12-18T11:52:21.215Z,156.98
2022-12-18T11:55:31.072Z,191.52
2022-12-18T11:58:31.304Z,92.68
2022-12-18T12:01:32.573Z,85.70
2022-12-18T12:04:33.784Z,90.20
2022-12-18T12:07:25.277Z,120.13
2022-12-18T12:13:14.463Z,136.13
2022-12-18T12:16:10.359Z,123.68
2022-12-18T12:19:02.823Z,120.68
2022-12-18T12:21:56.354Z,161.38
2022-12-18T12:24:54.015Z,179.52
2022-12-18T12:28:11.860Z,132.82
2022-12-18T12:31:18.034Z,112.05
2022-12-18T12:34:25.475Z,105.15
2022-12-18T12:37:31.408Z,109.70
2022-12-18T12:40:50.281Z,96.55
2022-12-18T12:43:37.261Z,88.57
2022-12-18T12:46:35.327Z,103.55
2022-12-18T12:49:28.083Z,100.43
2022-12-18T12:52:47.710Z,139.80
2022-12-18T12:55:35.453Z,196.70
2022-12-18T12:58:46.884Z,117.82
2022-12-18T13:01:43.263Z,107.47
2022-12-18T13:04:39.456Z,80.53
2022-12-18T13:07:35.974Z,95.10
2022-12-18T13:10:32.696Z,81.30
2022-12-18T13:13:23.597Z,78.38
2022-12-18T13:16:11.745Z,79.63
2022-12-18T13:18:59.965Z,102.25
2022-12-18T13:21:54.885Z,109.53
2022-12-18T13:24:41.716Z,95.35
2022-12-18T13:27:47.033Z,95.95
2022-12-18T13:30:33.912Z,82.13
2022-12-18T13:33:29.913Z,131.32
2022-12-18T13:36:49.710Z,279.45
2022-12-18T13:39:37.922Z,229.98
2022-12-18T13:42:43.374Z,114.53
2022-12-18T13:45:43.416Z,107.70
2022-12-18T13:48:33.756Z,122.13
2022-12-18T13:51:21.428Z,126.20
2022-12-18T13:54:21.532Z,223.82
2022-12-18T13:57:36.304Z,187.00
2022-12-18T14:00:25.682Z,187.65
2022-12-18T14:03:24.849Z,347.33
2022-12-18T14:06:13.848Z,305.95
2022-12-18T14:09:01.664Z,218.27
2022-12-18T14:11:50.010Z,126.22
2022-12-18T14:14:36.739Z,157.52
2022-12-18T14:17:24.254Z,202.25
2022-12-18T14:20:15.995Z,229.02
2022-12-18T14:23:02.725Z,359.63
2022-12-18T14:25:49.726Z,322.33
2022-12-18T14:28:45.422Z,193.25
2022-12-18T14:31:32.912Z,186.45
2022-12-18T14:34:20.529Z,122.57
2022-12-18T14:37:30.205Z,108.95
2022-12-18T14:40:16.752Z,122.15
2022-12-18T14:43:04.041Z,138.65
2022-12-18T14:45:51.029Z,149.23
2022-12-18T14:48:43.061Z,184.88
2022-12-18T14:51:32.666Z,180.82
2022-12-18T14:54:21.034Z,138.93
2022-12-18T14:57:21.337Z,169.93
2022-12-18T15:00:12.948Z,179.10
2022-12-18T15:03:00.024Z,187.10
2022-12-18T15:05:46.793Z,188.15
2022-12-18T15:08:38.198Z,236.50
2022-12-18T15:11:30.695Z,159.05
2022-12-18T15:14:43.458Z,176.27
2022-12-18T15:17:30.397Z,120.75
2022-12-18T15:20:16.678Z,153.25
2022-12-18T15:23:03.851Z,179.77
2022-12-18T15:26:02.451Z,158.02
2022-12-18T15:28:51.043Z,174.80
2022-12-18T15:31:37.654Z,196.23
2022-12-18T15:34:28.156Z,201.15
2022-12-18T15:37:15.287Z,204.63
2022-12-18T15:40:03.671Z,155.13
2022-12-18T15:43:12.530Z,176.27
2022-12-18T15:46:00.479Z,192.35
2022-12-18T15:48:49.955Z,199.10
2022-12-18T15:51:37.397Z,229.63
2022-12-18T15:54:44.012Z,221.05
2022-12-18T15:57:30.616Z,127.82
2022-12-18T16:00:20.006Z,233.75
2022-12-18T16:03:07.784Z,264.75
2022-12-18T16:05:54.924Z,174.40
2022-12-18T16:08:43.471Z,341.48
2022-12-18T16:11:41.387Z,262.23
2022-12-18T16:14:30.722Z,332.27
2022-12-18T16:17:17.912Z,274.70
2022-12-18T16:20:05.089Z,290.33
2022-12-18T16:22:52.456Z,193.73
2022-12-18T16:25:39.162Z,147.18
2022-12-18T16:28:25.850Z,290.80
2022-12-18T16:31:12.948Z,226.93
2022-12-18T16:34:20.020Z,246.63
2022-12-18T16:37:13.196Z,269.13
2022-12-18T16:39:59.927Z,311.63
2022-12-18T16:42:47.419Z,354.20
2022-12-18T16:45:34.320Z,247.05
2022-12-18T16:48:21.028Z,338.20
2022-12-18T16:51:07.702Z,285.10
2022-12-18T16:53:59.884Z,158.57
2022-12-18T16:56:50.022Z,167.20
2022-12-18T16:59:36.940Z,201.52
2022-12-18T17:02:26.076Z,217.35
2022-12-18T17:05:14.748Z,205.02
2022-12-18T17:08:00.870Z,235.43
2022-12-18T17:10:47.676Z,175.10
2022-12-18T17:13:34.655Z,167.90
2022-12-18T17:16:21.975Z,145.05
2022-12-18T17:19:13.578Z,181.43
2022-12-18T17:22:06.285Z,145.45
2022-12-18T17:24:53.145Z,143.85
2022-12-18T17:27:40.447Z,185.05
2022-12-18T17:30:26.706Z,372.15
2022-12-18T17:33:13.629Z,313.60
2022-12-18T17:36:00.968Z,375.77
2022-12-18T17:38:56.683Z,248.50
2022-12-18T17:41:45.693Z,280.40
2022-12-18T17:44:34.458Z,219.02
2022-12-18T17:47:23.607Z,213.13
2022-12-18T17:50:11.034Z,188.80
2022-12-18T17:52:58.675Z,228.70
2022-12-18T17:55:57.000Z,201.50
2022-12-18T17:58:43.644Z,162.60
2022-12-18T18:01:30.765Z,293.30
2022-12-18T18:04:17.456Z,164.73
2022-12-18T18:07:04.698Z,206.93
2022-12-18T18:09:51.571Z,151.73
2022-12-18T18:12:57.948Z,215.00
2022-12-18T18:15:44.256Z,220.03
2022-12-18T18:18:39.104Z,161.07
2022-12-18T18:21:25.757Z,204.70
2022-12-18T18:24:14.142Z,212.32
2022-12-18T18:27:00.688Z,192.93
2022-12-18T18:29:47.888Z,290.67
2022-12-18T18:32:42.361Z,221.30
2022-12-18T18:35:53.446Z,305.13
2022-12-18T18:38:46.739Z,395.55
2022-12-18T18:41:35.249Z,299.17
2022-12-18T18:44:24.847Z,272.37
2022-12-18T18:47:16.171Z,293.38
2022-12-18T18:50:02.847Z,296.83
2022-12-18T18:52:51.027Z,231.00
2022-12-18T18:55:38.857Z,173.43
2022-12-18T18:58:26.352Z,217.97
2022-12-18T19:01:18.048Z,196.70
2022-12-18T19:04:05.158Z,165.17
2022-12-18T19:06:51.532Z,169.87
2022-12-18T19:09:38.611Z,205.33
2022-12-18T19:12:43.724Z,180.07
2022-12-18T19:15:36.082Z,152.70
2022-12-18T19:18:22.990Z,133.47
2022-12-18T19:21:12.855Z,163.38
2022-12-18T19:24:00.216Z,143.83
2022-12-18T19:26:48.381Z,183.57
2022-12-18T19:29:35.128Z,159.40
2022-12-18T19:32:26.945Z,198.90
2022-12-18T19:35:15.849Z,180.13
2022-12-18T19:38:03.360Z,153.97
2022-12-18T19:40:50.179Z,139.85
2022-12-18T19:43:37.890Z,161.30
2022-12-18T19:46:24.246Z,257.75
2022-12-18T19:49:17.493Z,257.20
2022-12-18T19:52:05.916Z,206.68
2022-12-18T19:54:55.042Z,264.25
2022-12-18T19:57:45.124Z,303.30
2022-12-18T20:00:32.843Z,287.15
2022-12-18T20:03:28.912Z,307.27
2022-12-18T20:06:20.910Z,175.70
2022-12-18T20:09:07.896Z,158.50
2022-12-18T20:11:59.327Z,143.52
2022-12-18T20:14:45.954Z,153.43
2022-12-18T20:17:33.359Z,128.50
2022-12-18T20:20:21.289Z,139.23
2022-12-18T20:23:13.669Z,133.73
2022-12-18T20:26:00.880Z,187.25
2022-12-18T20:28:49.745Z,172.18
2022-12-18T20:31:42.103Z,146.10
2022-12-18T20:34:30.468Z,167.30
2022-12-18T20:37:20.071Z,148.85
2022-12-18T20:40:13.828Z,120.97
2022-12-18T20:43:01.206Z,122.43
2022-12-18T20:45:48.039Z,155.52
2022-12-18T20:48:34.857Z,133.50
2022-12-18T20:51:22.043Z,154.73
2022-12-18T20:54:11.757Z,144.02
2022-12-18T20:56:58.809Z,145.18
2022-12-18T20:59:48.364Z,167.48
2022-12-18T21:02:38.175Z,168.63
2022-12-18T21:05:27.014Z,146.73
2022-12-18T21:08:14.186Z,140.20
2022-12-18T21:11:39.002Z,148.90
2022-12-18T21:14:28.252Z,155.05
2022-12-18T21:17:15.533Z,215.85
2022-12-18T21:20:04.800Z,635.77
2022-12-18T21:22:52.589Z,228.07
2022-12-18T21:25:42.447Z,240.93
2022-12-18T21:28:28.775Z,154.03
2022-12-18T21:31:18.276Z,145.27
2022-12-18T21:34:05.912Z,124.20
2022-12-18T21:36:53.997Z,213.87
2022-12-18T21:39:40.168Z,167.60
2022-12-18T21:42:45.586Z,221.87
2022-12-18T21:45:36.516Z,172.63
2022-12-18T21:48:23.344Z,154.13
2022-12-18T21:51:17.868Z,164.50
2022-12-18T21:54:07.957Z,167.23
2022-12-18T21:57:04.854Z,148.67
2022-12-18T21:59:51.845Z,170.15
2022-12-18T22:02:38.330Z,128.38
2022-12-18T22:05:31.762Z,116.97
2022-12-18T22:08:17.954Z,129.20
2022-12-18T22:11:05.212Z,129.47
2022-12-18T22:13:54.485Z,111.67
2022-12-18T22:16:44.751Z,107.13
2022-12-18T22:19:39.499Z,155.33
2022-12-18T22:22:29.255Z,121.93
2022-12-18T22:25:15.370Z,125.47
2022-12-18T22:28:23.460Z,125.27
2022-12-18T22:31:12.084Z,123.00
2022-12-18T22:34:00.555Z,174.47
2022-12-18T22:36:50.926Z,208.17
2022-12-18T22:39:37.816Z,137.65
2022-12-18T22:42:24.385Z,131.27
2022-12-18T22:45:11.434Z,126.03
2022-12-18T22:47:58.108Z,120.03
2022-12-18T22:50:44.514Z,111.80
2022-12-18T22:53:38.546Z,101.83
2022-12-18T22:56:29.133Z,109.77
2022-12-18T22:59:21.475Z,110.70
2022-12-18T23:02:11.148Z,115.53
2022-12-18T23:04:59.918Z,98.90
2022-12-18T23:07:46.779Z,101.17
2022-12-18T23:10:38.847Z,91.13
2022-12-18T23:13:26.163Z,110.60
2022-12-18T23:16:18.339Z,112.03
2022-12-18T23:19:05.961Z,115.07
2022-12-18T23:21:57.817Z,99.90
2022-12-18T23:24:44.896Z,99.10
2022-12-18T23:27:34.487Z,92.17
2022-12-18T23:30:21.171Z,108.03
2022-12-18T23:33:07.690Z,110.10
2022-12-18T23:35:59.172Z,107.03
2022-12-18T23:38:53.637Z,190.05
2022-12-18T23:41:40.586Z,96.47
2022-12-18T23:44:27.837Z,101.43
2022-12-18T23:47:14.689Z,103.80
2022-12-18T23:50:15.561Z,96.90
2022-12-18T23:53:05.288Z,105.87
2022-12-18T23:55:51.910Z,93.87
2022-12-18T23:58:39.947Z,94.03
